TAF Text Data
IDs:
Format:
Raw Decoded Include METAR

Data at: 1251 UTC 17 Sep 2019

KCHA 171120Z 1712/1812 00000KT P6SM SKC
  FM171600 35007KT P6SM SCT060
  FM180200 00000KT P6SM SKC